createdAt,value
2023-04-20T00:01:50.098Z,1.77
2023-04-20T00:04:19.226Z,1.33
2023-04-20T00:06:47.450Z,1.67
2023-04-20T00:09:25.511Z,1.60
2023-04-20T00:11:56.830Z,1.63
2023-04-20T00:14:27.170Z,1.10
2023-04-20T00:17:04.813Z,1.23
2023-04-20T00:19:34.168Z,2.70
2023-04-20T00:22:10.872Z,2.53
2023-04-20T00:24:41.652Z,1.70
2023-04-20T00:27:21.497Z,1.58
2023-04-20T00:30:02.254Z,1.30
2023-04-20T00:32:38.141Z,2.03
2023-04-20T00:35:18.164Z,1.23
2023-04-20T00:37:48.074Z,1.37
2023-04-20T00:40:22.357Z,0.83
2023-04-20T00:42:52.582Z,2.30
2023-04-20T00:45:29.460Z,1.93
2023-04-20T00:48:08.215Z,1.93
2023-04-20T00:50:46.558Z,1.73
2023-04-20T00:53:16.272Z,1.40
2023-04-20T00:55:55.277Z,1.03
2023-04-20T00:58:23.886Z,1.53
2023-04-20T01:00:52.298Z,1.10
2023-04-20T01:03:23.658Z,1.70
2023-04-20T01:06:07.371Z,1.08
2023-04-20T01:08:38.232Z,3.60
2023-04-20T01:11:09.846Z,0.98
2023-04-20T01:13:45.535Z,2.45
2023-04-20T01:16:18.824Z,1.53
2023-04-20T01:18:49.972Z,3.53
2023-04-20T01:21:26.992Z,1.95
2023-04-20T01:24:04.487Z,0.93
2023-04-20T01:26:40.292Z,4.03
2023-04-20T01:31:57.660Z,1.53
2023-04-20T01:34:29.852Z,1.70
2023-04-20T01:36:59.984Z,3.77
2023-04-20T01:39:33.868Z,3.93
2023-04-20T01:42:04.165Z,2.10
2023-04-20T01:44:34.538Z,2.10
2023-04-20T01:47:13.853Z,5.35
2023-04-20T01:49:44.492Z,3.50
2023-04-20T01:52:16.776Z,0.70
2023-04-20T01:57:38.725Z,4.10
2023-04-20T02:00:18.132Z,1.43
2023-04-20T02:02:51.743Z,1.90
2023-04-20T02:05:21.939Z,2.10
2023-04-20T02:07:54.095Z,1.38
2023-04-20T02:10:32.213Z,1.77
2023-04-20T02:13:09.760Z,4.13
2023-04-20T02:15:40.907Z,2.20
2023-04-20T02:20:55.136Z,1.83
2023-04-20T02:23:30.856Z,2.83
2023-04-20T02:26:09.220Z,1.67
2023-04-20T02:28:40.996Z,1.80
2023-04-20T02:31:12.436Z,1.38
2023-04-20T02:33:57.405Z,2.30
2023-04-20T02:36:43.565Z,3.10
2023-04-20T02:39:19.484Z,2.60
2023-04-20T02:41:51.074Z,1.30
2023-04-20T02:44:22.645Z,1.70
2023-04-20T02:47:05.818Z,1.70
2023-04-20T02:49:41.805Z,1.13
2023-04-20T02:52:13.467Z,1.77
2023-04-20T02:54:49.924Z,2.10
2023-04-20T02:57:22.223Z,2.20
2023-04-20T02:59:52.648Z,2.58
2023-04-20T03:02:36.818Z,1.40
2023-04-20T03:05:13.774Z,1.70
2023-04-20T03:07:48.379Z,1.57
2023-04-20T03:10:20.246Z,1.70
2023-04-20T03:12:57.811Z,1.47
2023-04-20T03:15:48.055Z,1.20
2023-04-20T03:18:28.837Z,1.17
2023-04-20T03:20:59.273Z,1.37
2023-04-20T03:23:38.684Z,2.43
2023-04-20T03:26:14.991Z,2.37
2023-04-20T03:28:53.716Z,2.13
2023-04-20T03:31:38.340Z,1.47
2023-04-20T03:34:13.766Z,1.17
2023-04-20T03:36:46.862Z,2.33
2023-04-20T03:39:25.881Z,1.70
2023-04-20T03:42:00.948Z,2.57
2023-04-20T03:44:42.830Z,2.10
2023-04-20T03:47:27.910Z,1.57
2023-04-20T03:50:11.805Z,3.07
2023-04-20T03:52:41.974Z,1.20
2023-04-20T03:55:16.586Z,1.93
2023-04-20T03:57:57.837Z,1.65
2023-04-20T04:00:29.091Z,3.20
2023-04-20T04:06:06.639Z,2.07
2023-04-20T04:08:38.051Z,4.10
2023-04-20T04:11:22.557Z,1.53
2023-04-20T04:13:53.349Z,1.43
2023-04-20T04:16:21.805Z,1.80
2023-04-20T04:19:00.403Z,1.70
2023-04-20T04:21:30.848Z,2.03
2023-04-20T04:24:15.346Z,1.60
2023-04-20T04:26:59.820Z,1.50
2023-04-20T04:29:39.419Z,1.87
2023-04-20T04:32:18.306Z,2.43
2023-04-20T04:34:50.575Z,3.37
2023-04-20T04:37:27.402Z,4.07
2023-04-20T04:39:59.832Z,1.60
2023-04-20T04:42:44.815Z,1.20
2023-04-20T04:45:21.759Z,1.60
2023-04-20T04:50:34.069Z,2.35
2023-04-20T04:53:07.559Z,1.90
2023-04-20T04:55:41.193Z,2.30
2023-04-20T04:58:18.796Z,4.43
2023-04-20T05:00:52.445Z,1.30
2023-04-20T05:03:24.736Z,2.97
2023-04-20T05:05:55.004Z,5.70
2023-04-20T05:08:56.979Z,1.40
2023-04-20T05:11:25.256Z,2.35
2023-04-20T05:14:09.644Z,2.80
2023-04-20T05:16:40.716Z,0.87
2023-04-20T05:19:16.102Z,2.10
2023-04-20T05:21:49.180Z,1.53
2023-04-20T05:24:17.703Z,2.50
2023-04-20T05:27:02.100Z,2.60
2023-04-20T05:29:33.736Z,1.80
2023-04-20T05:32:04.509Z,3.33
2023-04-20T05:34:35.192Z,3.33
2023-04-20T05:37:05.324Z,2.43
2023-04-20T05:39:35.098Z,3.17
2023-04-20T05:42:07.253Z,1.27
2023-04-20T05:44:42.092Z,1.83
2023-04-20T05:47:16.591Z,6.00
2023-04-20T05:52:41.422Z,2.60
2023-04-20T05:55:11.909Z,2.33
2023-04-20T05:57:54.135Z,2.43
2023-04-20T06:00:28.132Z,1.20
2023-04-20T06:03:02.049Z,3.50
2023-04-20T06:05:33.297Z,2.90
2023-04-20T06:08:06.982Z,1.63
2023-04-20T06:10:37.470Z,6.73
2023-04-20T06:13:10.150Z,3.17
2023-04-20T06:15:53.026Z,2.97
2023-04-20T06:18:35.317Z,1.70
2023-04-20T06:21:12.743Z,1.60
2023-04-20T06:23:45.350Z,2.47
2023-04-20T06:26:18.582Z,1.70
2023-04-20T06:28:55.604Z,1.70
2023-04-20T06:31:33.059Z,1.77
2023-04-20T06:34:06.070Z,1.73
2023-04-20T06:36:35.106Z,3.53
2023-04-20T06:39:06.821Z,2.10
2023-04-20T06:41:48.648Z,1.17
2023-04-20T06:44:21.248Z,1.30
2023-04-20T06:47:01.741Z,1.43
2023-04-20T06:52:16.614Z,2.13
2023-04-20T06:54:49.917Z,2.23
2023-04-20T06:57:22.928Z,1.20
2023-04-20T06:59:54.995Z,1.10
2023-04-20T07:02:31.265Z,1.83
2023-04-20T07:05:07.354Z,2.77
2023-04-20T07:07:37.510Z,1.00
2023-04-20T07:10:10.056Z,2.23
2023-04-20T07:12:49.675Z,1.10
2023-04-20T07:15:23.730Z,1.50
2023-04-20T07:17:52.906Z,1.73
2023-04-20T07:20:22.182Z,1.73
2023-04-20T07:22:49.836Z,0.70
2023-04-20T07:25:19.160Z,1.70
2023-04-20T07:27:53.205Z,1.07
2023-04-20T07:30:24.747Z,1.20
2023-04-20T07:32:52.838Z,2.03
2023-04-20T07:35:23.160Z,1.77
2023-04-20T07:37:53.156Z,2.17
2023-04-20T07:40:24.798Z,1.23
2023-04-20T07:45:24.053Z,1.50
2023-04-20T07:48:02.777Z,1.30
2023-04-20T07:50:33.910Z,2.53
2023-04-20T07:53:09.088Z,3.53
2023-04-20T07:55:39.081Z,1.57
2023-04-20T07:58:09.876Z,1.70
2023-04-20T08:00:40.233Z,2.33
2023-04-20T08:06:07.006Z,1.23
2023-04-20T08:11:14.995Z,1.97
2023-04-20T08:13:48.990Z,1.33
2023-04-20T08:16:22.825Z,1.20
2023-04-20T08:18:50.661Z,2.53
2023-04-20T08:21:27.588Z,1.77
2023-04-20T08:23:58.033Z,1.30
2023-04-20T08:26:31.315Z,7.07
2023-04-20T08:29:16.697Z,1.60
2023-04-20T08:31:51.773Z,1.70
2023-04-20T08:34:20.174Z,1.67
2023-04-20T08:39:36.591Z,1.40
2023-04-20T08:42:07.361Z,1.17
2023-04-20T08:44:38.117Z,2.93
2023-04-20T08:47:10.406Z,2.93
2023-04-20T08:49:44.467Z,1.57
2023-04-20T08:52:15.585Z,1.03
2023-04-20T08:54:56.098Z,1.95
2023-04-20T08:57:29.408Z,3.13
2023-04-20T09:00:01.587Z,2.70
2023-04-20T09:02:45.865Z,1.48
2023-04-20T09:05:16.613Z,1.10
2023-04-20T09:08:03.729Z,1.53
2023-04-20T09:10:45.876Z,1.47
2023-04-20T09:13:24.192Z,1.63
2023-04-20T09:15:51.895Z,8.53
2023-04-20T09:18:23.727Z,1.97
2023-04-20T09:20:57.785Z,0.80
2023-04-20T09:23:43.414Z,0.77
2023-04-20T09:26:24.573Z,1.47
2023-04-20T09:28:52.807Z,1.08
2023-04-20T09:31:23.966Z,1.50
2023-04-20T09:34:20.564Z,1.00
2023-04-20T09:36:56.688Z,3.53
2023-04-20T09:39:30.391Z,4.30
2023-04-20T09:42:05.425Z,1.23
2023-04-20T09:44:35.896Z,1.40
2023-04-20T09:47:25.755Z,0.97
2023-04-20T09:50:19.511Z,1.53
2023-04-20T09:52:52.868Z,2.00
2023-04-20T09:55:23.700Z,1.67
2023-04-20T09:57:56.831Z,1.65
2023-04-20T10:00:32.114Z,2.73
2023-04-20T10:03:06.273Z,1.20
2023-04-20T10:05:42.430Z,0.93
2023-04-20T10:08:20.045Z,1.50
2023-04-20T10:10:53.664Z,3.83
2023-04-20T10:13:23.476Z,2.27
2023-04-20T10:15:51.920Z,2.80
2023-04-20T10:18:26.963Z,1.23
2023-04-20T10:21:09.395Z,2.87
2023-04-20T10:23:54.655Z,1.83
2023-04-20T10:26:26.556Z,2.90
2023-04-20T10:29:00.556Z,1.43
2023-04-20T10:31:47.610Z,1.47
2023-04-20T10:34:18.827Z,0.90
2023-04-20T10:37:03.620Z,1.42
2023-04-20T10:39:34.782Z,1.60
2023-04-20T10:42:05.786Z,4.43
2023-04-20T10:44:36.500Z,4.07
2023-04-20T10:47:06.885Z,7.77
2023-04-20T10:49:37.479Z,2.13
2023-04-20T10:52:24.692Z,2.20
2023-04-20T10:54:55.711Z,1.13
2023-04-20T10:57:26.213Z,0.82
2023-04-20T11:00:02.539Z,2.33
2023-04-20T11:02:42.819Z,3.73
2023-04-20T11:05:19.065Z,1.87
2023-04-20T11:08:02.461Z,3.23
2023-04-20T11:10:44.440Z,2.57
2023-04-20T11:13:37.746Z,1.47
2023-04-20T11:16:36.355Z,6.23
2023-04-20T11:19:15.891Z,1.20
2023-04-20T11:21:49.524Z,1.53
2023-04-20T11:24:36.127Z,0.70
2023-04-20T11:27:05.452Z,0.77
2023-04-20T11:29:43.103Z,0.97
2023-04-20T11:32:23.197Z,0.93
2023-04-20T11:35:13.230Z,1.67
2023-04-20T11:37:53.704Z,1.30
2023-04-20T11:40:24.600Z,1.27
2023-04-20T11:42:55.516Z,3.03
2023-04-20T11:45:26.664Z,2.47
2023-04-20T11:48:09.074Z,1.38
2023-04-20T11:50:45.950Z,1.00
2023-04-20T11:53:19.915Z,1.80
2023-04-20T11:55:53.605Z,1.47
2023-04-20T11:58:23.948Z,1.80
2023-04-20T12:00:51.883Z,1.40
2023-04-20T12:03:21.759Z,1.07
2023-04-20T12:05:58.714Z,2.03
2023-04-20T12:11:24.561Z,2.03
2023-04-20T12:13:55.541Z,1.77
2023-04-20T12:16:39.802Z,2.28
2023-04-20T12:19:17.389Z,2.50
2023-04-20T12:24:40.333Z,2.90
2023-04-20T12:27:09.274Z,2.93
2023-04-20T12:29:38.145Z,7.23
2023-04-20T12:32:10.135Z,2.03
2023-04-20T12:34:40.079Z,2.97
2023-04-20T12:37:17.490Z,2.20
2023-04-20T12:39:48.026Z,3.10
2023-04-20T12:42:23.485Z,2.05
2023-04-20T12:45:05.999Z,3.80
2023-04-20T12:47:39.447Z,2.47
2023-04-20T12:50:11.316Z,1.07
2023-04-20T12:52:44.113Z,3.03
2023-04-20T12:55:21.556Z,2.40
2023-04-20T12:57:50.657Z,3.20
2023-04-20T13:00:21.817Z,1.90
2023-04-20T13:02:49.833Z,2.28
2023-04-20T13:05:23.833Z,1.50
2023-04-20T13:07:53.912Z,1.93
2023-04-20T13:10:22.224Z,1.90
2023-04-20T13:15:39.861Z,2.97
2023-04-20T13:20:43.910Z,1.97
2023-04-20T13:26:00.723Z,3.60
2023-04-20T13:28:39.447Z,1.60
2023-04-20T13:31:10.633Z,1.63
2023-04-20T13:33:40.407Z,1.40
2023-04-20T13:36:13.819Z,1.50
2023-04-20T13:38:51.432Z,2.83
2023-04-20T13:41:35.404Z,3.03
2023-04-20T13:44:06.860Z,2.77
2023-04-20T13:46:38.600Z,4.10
2023-04-20T13:51:43.841Z,2.83
2023-04-20T13:54:13.371Z,2.23
2023-04-20T13:56:43.899Z,2.97
2023-04-20T13:59:19.202Z,2.40
2023-04-20T14:01:56.945Z,1.67
2023-04-20T14:04:24.949Z,1.60
2023-04-20T14:06:57.329Z,4.07
2023-04-20T14:09:30.893Z,3.10
2023-04-20T14:14:52.347Z,2.08
2023-04-20T14:17:25.481Z,2.50
2023-04-20T14:19:56.299Z,4.13
2023-04-20T14:22:32.255Z,2.20
2023-04-20T14:25:02.621Z,4.07
2023-04-20T14:27:53.670Z,2.57
2023-04-20T14:30:21.820Z,2.58
2023-04-20T14:33:00.230Z,3.40
2023-04-20T14:35:31.920Z,3.50
2023-04-20T14:38:21.781Z,4.30
2023-04-20T14:40:52.685Z,2.67
2023-04-20T14:43:24.589Z,5.20
2023-04-20T14:48:31.525Z,6.07
2023-04-20T14:51:05.774Z,2.37
2023-04-20T14:53:36.536Z,1.77
2023-04-20T14:56:10.452Z,2.40
2023-04-20T14:58:44.718Z,2.33
2023-04-20T15:01:12.616Z,2.87
2023-04-20T15:03:47.488Z,2.33
2023-04-20T15:06:21.887Z,2.57
2023-04-20T15:08:56.496Z,2.43
2023-04-20T15:11:36.103Z,1.80
2023-04-20T15:16:51.963Z,2.30
2023-04-20T15:19:23.975Z,3.78
2023-04-20T15:21:56.536Z,3.40
2023-04-20T15:24:36.864Z,2.10
2023-04-20T15:27:09.614Z,1.60
2023-04-20T15:29:52.189Z,7.93
2023-04-20T15:32:26.190Z,2.50
2023-04-20T15:34:54.275Z,2.30
2023-04-20T15:37:23.488Z,3.73
2023-04-20T15:39:55.033Z,3.30
2023-04-20T15:42:31.653Z,3.17
2023-04-20T15:45:02.116Z,6.20
2023-04-20T15:47:32.737Z,3.03
2023-04-20T15:50:06.277Z,2.85
2023-04-20T15:52:39.835Z,6.03
2023-04-20T15:55:13.175Z,1.73
2023-04-20T15:57:42.608Z,2.30
2023-04-20T16:00:30.050Z,1.93
2023-04-20T16:03:10.036Z,1.73
2023-04-20T16:05:54.016Z,2.00
2023-04-20T16:08:28.847Z,1.55
2023-04-20T16:10:58.007Z,3.85
2023-04-20T16:13:30.437Z,2.20
2023-04-20T16:16:00.115Z,3.92
2023-04-20T16:18:52.200Z,3.40
2023-04-20T16:21:22.972Z,3.70
2023-04-20T16:23:54.846Z,6.97
2023-04-20T16:26:37.505Z,4.70
2023-04-20T16:29:12.961Z,3.03
2023-04-20T16:34:41.279Z,9.30
2023-04-20T16:37:18.731Z,13.77
2023-04-20T16:39:52.469Z,4.03
2023-04-20T16:42:27.725Z,10.73
2023-04-20T16:45:06.646Z,2.47
2023-04-20T16:50:21.661Z,3.00
2023-04-20T16:52:56.914Z,7.82
2023-04-20T16:55:28.919Z,3.50
2023-04-20T16:58:00.465Z,3.07
2023-04-20T17:00:31.745Z,2.05
2023-04-20T17:03:02.350Z,2.60
2023-04-20T17:05:39.007Z,1.60
2023-04-20T17:08:09.494Z,2.30
2023-04-20T17:10:43.214Z,3.90
2023-04-20T17:13:11.303Z,3.70
2023-04-20T17:21:23.432Z,4.43
2023-04-20T17:23:53.132Z,1.43
2023-04-20T17:26:30.743Z,2.43
2023-04-20T17:29:02.328Z,7.13
2023-04-20T17:31:33.680Z,3.50
2023-04-20T17:34:07.064Z,2.23
2023-04-20T17:36:41.115Z,2.67
2023-04-20T17:39:12.979Z,4.27
2023-04-20T17:41:48.674Z,1.70
2023-04-20T17:44:16.594Z,3.87
2023-04-20T17:46:44.724Z,6.43
2023-04-20T17:49:17.994Z,1.70
2023-04-20T17:54:31.124Z,7.57
2023-04-20T17:57:09.237Z,1.42
2023-04-20T17:59:39.544Z,4.00
2023-04-20T18:02:12.024Z,3.07
2023-04-20T18:04:40.567Z,2.07
2023-04-20T18:07:15.674Z,2.67
2023-04-20T18:09:47.288Z,3.83
2023-04-20T18:12:28.467Z,3.07
2023-04-20T18:15:01.001Z,5.20
2023-04-20T18:17:39.617Z,3.63
2023-04-20T18:20:10.918Z,2.60
2023-04-20T18:22:40.969Z,3.70
2023-04-20T18:25:13.165Z,4.87
2023-04-20T18:27:41.410Z,4.13
2023-04-20T18:30:11.244Z,1.87
2023-04-20T18:32:40.350Z,1.87
2023-04-20T18:35:13.039Z,3.63
2023-04-20T18:37:43.302Z,6.57
2023-04-20T18:40:16.412Z,5.47
2023-04-20T18:42:51.586Z,3.77
2023-04-20T18:45:21.791Z,2.13
2023-04-20T18:47:49.561Z,2.70
2023-04-20T18:50:24.800Z,1.73
2023-04-20T18:52:55.164Z,2.57
2023-04-20T18:55:23.049Z,4.37
2023-04-20T18:57:53.107Z,5.63
2023-04-20T19:00:25.047Z,13.87
2023-04-20T19:02:55.320Z,7.87
2023-04-20T19:05:26.184Z,6.47
2023-04-20T19:07:56.860Z,20.37
2023-04-20T19:10:28.037Z,22.00
2023-04-20T19:15:49.698Z,11.40
2023-04-20T19:18:22.682Z,10.17
2023-04-20T19:20:51.924Z,8.50
2023-04-20T19:23:22.579Z,4.97
2023-04-20T19:25:54.122Z,6.47
2023-04-20T19:28:24.439Z,5.95
2023-04-20T19:30:52.191Z,7.17
2023-04-20T19:33:20.345Z,5.93
2023-04-20T19:35:51.278Z,3.67
2023-04-20T19:38:20.255Z,5.82
2023-04-20T19:40:54.049Z,5.70
2023-04-20T19:43:27.602Z,3.90
2023-04-20T19:45:59.161Z,8.90
2023-04-20T19:48:36.861Z,12.37
2023-04-20T19:51:07.942Z,13.00
2023-04-20T19:53:38.885Z,9.40
2023-04-20T19:56:10.908Z,12.40
2023-04-20T19:58:42.299Z,5.00
2023-04-20T20:01:17.859Z,6.53
2023-04-20T20:03:45.784Z,7.13
2023-04-20T20:09:03.972Z,6.37
2023-04-20T20:11:36.702Z,5.47
2023-04-20T20:14:08.911Z,8.15
2023-04-20T20:16:42.027Z,14.37
2023-04-20T20:19:12.260Z,13.03
2023-04-20T20:21:42.505Z,23.73
2023-04-20T20:24:13.036Z,14.50
2023-04-20T20:26:55.884Z,5.70
2023-04-20T20:29:24.477Z,10.50
2023-04-20T20:31:55.957Z,10.53
2023-04-20T20:34:25.378Z,4.40
2023-04-20T20:36:56.482Z,7.07
2023-04-20T20:39:29.437Z,5.18
2023-04-20T20:42:02.108Z,4.37
2023-04-20T20:44:36.526Z,10.03
2023-04-20T20:47:08.893Z,7.53
2023-04-20T20:49:37.300Z,6.23
2023-04-20T20:52:09.148Z,7.03
2023-04-20T20:57:07.557Z,4.33
2023-04-20T20:59:37.001Z,3.33
2023-04-20T21:02:05.401Z,3.67
2023-04-20T21:04:40.854Z,5.07
2023-04-20T21:07:09.868Z,3.23
2023-04-20T21:09:40.548Z,3.33
2023-04-20T21:12:10.842Z,4.60
2023-04-20T21:14:59.422Z,3.37
2023-04-20T21:17:28.441Z,3.00
2023-04-20T21:20:02.102Z,5.43
2023-04-20T21:22:33.539Z,4.90
2023-04-20T21:25:13.072Z,3.10
2023-04-20T21:27:46.690Z,3.27
2023-04-20T21:30:17.613Z,4.30
2023-04-20T21:32:48.910Z,6.20
2023-04-20T21:35:23.594Z,3.88
2023-04-20T21:37:53.829Z,3.93
2023-04-20T21:40:25.447Z,7.57
2023-04-20T21:42:55.830Z,4.88
2023-04-20T21:45:32.827Z,3.33
2023-04-20T21:48:03.751Z,2.97
2023-04-20T21:50:34.683Z,4.10
2023-04-20T21:55:45.939Z,4.68
2023-04-20T21:58:18.117Z,3.30
2023-04-20T22:01:02.216Z,6.00
2023-04-20T22:03:39.792Z,3.30
2023-04-20T22:06:32.236Z,6.73
2023-04-20T22:09:08.402Z,3.17
2023-04-20T22:11:41.218Z,4.57
2023-04-20T22:14:09.323Z,2.00
2023-04-20T22:16:37.366Z,4.07
2023-04-20T22:19:08.245Z,5.23
2023-04-20T22:21:39.250Z,4.30
2023-04-20T22:24:08.748Z,3.75
2023-04-20T22:29:24.296Z,4.80
2023-04-20T22:32:01.679Z,3.93
2023-04-20T22:34:31.753Z,5.47
2023-04-20T22:37:07.710Z,2.40
2023-04-20T22:42:21.263Z,3.53
2023-04-20T22:44:49.049Z,5.32
2023-04-20T22:47:20.731Z,3.07
2023-04-20T22:49:52.512Z,3.37
2023-04-20T22:52:20.412Z,3.23
2023-04-20T22:54:56.394Z,4.87
2023-04-20T22:57:39.620Z,2.80
2023-04-20T23:00:27.968Z,3.03
2023-04-20T23:03:11.435Z,4.37
2023-04-20T23:05:39.679Z,2.83
2023-04-20T23:11:19.265Z,4.03
2023-04-20T23:13:58.162Z,3.30
2023-04-20T23:16:28.901Z,6.17
2023-04-20T23:21:46.670Z,4.90
2023-04-20T23:24:16.987Z,3.53
2023-04-20T23:26:55.169Z,6.03
2023-04-20T23:29:24.150Z,5.70
2023-04-20T23:31:57.006Z,8.35
2023-04-20T23:34:28.681Z,4.53
2023-04-20T23:36:58.170Z,4.43
2023-04-20T23:39:31.880Z,3.63
2023-04-20T23:42:00.037Z,3.73
2023-04-20T23:44:30.968Z,5.17
2023-04-20T23:46:58.706Z,10.15
2023-04-20T23:49:30.990Z,4.97
2023-04-20T23:51:58.914Z,5.03
2023-04-20T23:54:30.712Z,7.03
2023-04-20T23:57:05.759Z,4.93
2023-04-20T23:59:40.868Z,6.03
